createdAt,value
2023-03-05T00:00:58.179Z,5.97
2023-03-05T00:05:02.021Z,4.57
2023-03-05T00:09:06.320Z,5.40
2023-03-05T00:13:15.331Z,4.88
2023-03-05T00:17:18.390Z,4.50
2023-03-05T00:21:24.593Z,4.03
2023-03-05T00:25:27.710Z,4.25
2023-03-05T00:29:32.489Z,3.42
2023-03-05T00:33:35.458Z,4.28
2023-03-05T00:37:41.760Z,3.95
2023-03-05T00:41:47.565Z,3.80
2023-03-05T00:45:51.845Z,4.13
2023-03-05T00:49:55.006Z,5.30
2023-03-05T00:53:58.009Z,3.72
2023-03-05T00:58:01.129Z,4.90
2023-03-05T01:02:06.003Z,3.95
2023-03-05T01:06:12.585Z,4.57
2023-03-05T01:10:15.895Z,4.13
2023-03-05T01:14:19.332Z,4.65
2023-03-05T01:18:23.838Z,5.18
2023-03-05T01:22:26.918Z,4.65
2023-03-05T01:26:30.741Z,5.43
2023-03-05T01:30:34.433Z,4.45
2023-03-05T01:34:39.574Z,5.43
2023-03-05T01:38:42.868Z,4.97
2023-03-05T01:42:48.390Z,5.30
2023-03-05T01:46:51.902Z,5.70
2023-03-05T01:50:56.488Z,5.68
2023-03-05T01:55:03.267Z,5.70
2023-03-05T01:59:15.487Z,5.55
2023-03-05T02:03:18.890Z,5.30
2023-03-05T02:07:23.993Z,4.63
2023-03-05T02:11:27.216Z,5.25
2023-03-05T02:15:31.540Z,4.90
2023-03-05T02:19:49.078Z,4.93
2023-03-05T02:23:53.463Z,5.40
2023-03-05T02:28:01.668Z,4.38
2023-03-05T02:32:05.258Z,5.32
2023-03-05T02:36:09.883Z,6.35
2023-03-05T02:40:15.536Z,6.15
2023-03-05T02:44:18.374Z,4.35
2023-03-05T02:48:21.337Z,5.05
2023-03-05T02:52:25.668Z,6.05
2023-03-05T02:56:30.063Z,5.85
2023-03-05T03:04:35.839Z,4.82
2023-03-05T03:08:40.723Z,5.70
2023-03-05T03:12:46.316Z,4.82
2023-03-05T03:16:49.351Z,5.90
2023-03-05T03:20:52.434Z,5.55
2023-03-05T03:24:55.536Z,4.95
2023-03-05T03:29:02.173Z,5.60
2023-03-05T03:33:05.318Z,4.90
2023-03-05T03:37:08.716Z,5.60
2023-03-05T03:41:11.782Z,4.38
2023-03-05T03:45:16.481Z,4.50
2023-03-05T03:49:22.329Z,4.22
2023-03-05T03:53:25.338Z,3.85
2023-03-05T03:57:28.913Z,4.40
2023-03-05T04:01:33.475Z,5.30
2023-03-05T04:05:36.170Z,4.32
2023-03-05T04:09:40.154Z,4.05
2023-03-05T04:17:48.001Z,4.10
2023-03-05T04:21:53.250Z,4.63
2023-03-05T04:25:56.413Z,5.10
2023-03-05T04:29:59.724Z,4.40
2023-03-05T04:34:04.726Z,4.20
2023-03-05T04:38:08.161Z,4.82
2023-03-05T04:42:14.075Z,3.67
2023-03-05T04:46:17.165Z,4.35
2023-03-05T04:50:22.822Z,2.63
2023-03-05T04:54:25.924Z,3.13
2023-03-05T04:58:29.764Z,3.78
2023-03-05T05:02:32.668Z,3.63
2023-03-05T05:06:37.269Z,3.35
2023-03-05T05:10:41.704Z,3.65
2023-03-05T05:14:44.594Z,3.65
2023-03-05T05:18:48.650Z,3.22
2023-03-05T05:22:52.903Z,3.63
2023-03-05T05:26:56.382Z,4.47
2023-03-05T05:30:59.494Z,2.70
2023-03-05T05:35:02.433Z,3.05
2023-03-05T05:39:07.182Z,5.30
2023-03-05T05:43:11.870Z,4.05
2023-03-05T05:47:15.949Z,3.65
2023-03-05T05:51:23.265Z,1.88
2023-03-05T05:55:27.519Z,2.88
2023-03-05T05:59:30.612Z,4.30
2023-03-05T06:03:33.683Z,4.13
2023-03-05T06:07:36.733Z,2.97
2023-03-05T06:11:40.878Z,4.75
2023-03-05T06:15:43.824Z,4.40
2023-03-05T06:19:50.125Z,4.97
2023-03-05T06:23:53.611Z,5.47
2023-03-05T06:27:58.348Z,3.35
2023-03-05T06:32:01.426Z,4.53
2023-03-05T06:36:08.572Z,4.40
2023-03-05T06:40:15.074Z,5.13
2023-03-05T06:44:19.490Z,5.55
2023-03-05T06:48:22.381Z,5.20
2023-03-05T06:52:25.467Z,3.83
2023-03-05T06:56:28.897Z,5.88
2023-03-05T07:00:33.336Z,6.32
2023-03-05T07:04:35.978Z,5.88
2023-03-05T07:08:39.873Z,5.38
2023-03-05T07:12:45.607Z,4.20
2023-03-05T07:16:52.145Z,4.53
2023-03-05T07:20:55.635Z,6.22
2023-03-05T07:24:58.549Z,5.50
2023-03-05T07:29:04.636Z,5.85
2023-03-05T07:33:11.339Z,5.10
2023-03-05T07:37:15.583Z,4.22
2023-03-05T07:41:21.333Z,3.67
2023-03-05T07:45:24.504Z,4.15
2023-03-05T07:49:29.005Z,5.18
2023-03-05T07:53:32.271Z,5.38
2023-03-05T07:57:39.270Z,7.15
2023-03-05T08:01:42.761Z,3.35
2023-03-05T08:05:47.558Z,6.28
2023-03-05T08:09:50.420Z,5.82
2023-03-05T08:13:53.280Z,6.15
2023-03-05T08:17:56.377Z,5.47
2023-03-05T08:22:00.927Z,5.95
2023-03-05T08:26:13.452Z,7.00
2023-03-05T08:30:20.246Z,6.25
2023-03-05T08:34:26.280Z,5.55
2023-03-05T08:38:30.757Z,5.20
2023-03-05T08:42:33.549Z,6.78
2023-03-05T08:46:40.325Z,5.28
2023-03-05T08:50:46.047Z,6.03
2023-03-05T08:54:50.671Z,6.72
2023-03-05T08:58:53.381Z,6.85
2023-03-05T09:02:56.723Z,5.68
2023-03-05T09:06:59.792Z,5.88
2023-03-05T09:11:11.083Z,8.13
2023-03-05T09:15:14.339Z,6.20
2023-03-05T09:19:17.326Z,7.75
2023-03-05T09:23:20.586Z,5.25
2023-03-05T09:27:25.390Z,6.65
2023-03-05T09:31:29.524Z,6.88
2023-03-05T09:35:35.475Z,7.85
2023-03-05T09:39:38.925Z,7.57
2023-03-05T09:43:55.606Z,5.85
2023-03-05T09:48:06.922Z,5.75
2023-03-05T09:52:30.401Z,4.82
2023-03-05T09:56:40.261Z,6.03
2023-03-05T10:00:46.301Z,4.80
2023-03-05T10:04:54.775Z,6.22
2023-03-05T10:09:04.055Z,4.07
2023-03-05T10:13:18.379Z,4.40
2023-03-05T10:17:56.764Z,4.03
2023-03-05T10:22:14.532Z,5.50
2023-03-05T10:26:25.271Z,4.47
2023-03-05T10:30:47.728Z,4.43
2023-03-05T10:35:21.702Z,4.43
2023-03-05T10:40:06.624Z,3.85
2023-03-05T10:44:15.447Z,4.75
2023-03-05T10:48:33.130Z,4.07
2023-03-05T10:52:46.974Z,5.75
2023-03-05T10:56:52.740Z,4.70
2023-03-05T11:01:03.646Z,5.22
2023-03-05T11:05:07.721Z,4.07
2023-03-05T11:09:21.558Z,5.15
2023-03-05T11:13:29.164Z,6.22
2023-03-05T11:17:36.188Z,5.95
2023-03-05T11:21:42.439Z,9.25
2023-03-05T11:30:23.316Z,8.02
2023-03-05T11:34:38.691Z,7.10
2023-03-05T11:38:52.611Z,7.78
2023-03-05T11:42:58.279Z,8.52
2023-03-05T11:47:06.485Z,7.40
2023-03-05T11:51:16.243Z,8.93
2023-03-05T11:55:23.487Z,8.88
2023-03-05T11:59:31.973Z,8.32
2023-03-05T12:03:40.307Z,9.05
2023-03-05T12:07:48.234Z,8.38
2023-03-05T12:11:56.676Z,7.57
2023-03-05T12:16:13.451Z,4.47
2023-03-05T12:20:25.207Z,5.82
2023-03-05T12:24:37.732Z,6.85
2023-03-05T12:28:59.876Z,7.70
2023-03-05T12:33:08.283Z,6.43
2023-03-05T12:37:15.245Z,7.82
2023-03-05T12:41:37.803Z,7.50
2023-03-05T12:45:42.792Z,6.90
2023-03-05T12:49:47.846Z,7.65
2023-03-05T12:53:54.137Z,7.75
2023-03-05T12:58:00.169Z,8.75
2023-03-05T13:02:24.595Z,8.43
2023-03-05T13:06:30.517Z,10.32
2023-03-05T13:10:35.125Z,9.23
2023-03-05T13:14:45.542Z,8.93
2023-03-05T13:18:51.278Z,7.88
2023-03-05T13:23:16.001Z,7.68
2023-03-05T13:27:30.821Z,8.23
2023-03-05T13:31:44.522Z,5.63
2023-03-05T13:35:49.179Z,6.00
2023-03-05T13:39:53.737Z,5.43
2023-03-05T13:44:00.130Z,6.93
2023-03-05T13:48:07.237Z,4.80
2023-03-05T13:52:11.676Z,3.30
2023-03-05T13:56:18.018Z,4.65
2023-03-05T14:00:31.624Z,6.05
2023-03-05T14:04:38.737Z,5.47
2023-03-05T14:08:43.197Z,4.78
2023-03-05T14:12:46.435Z,4.88
2023-03-05T14:16:51.242Z,5.65
2023-03-05T14:21:04.562Z,5.32
2023-03-05T14:25:28.835Z,5.28
2023-03-05T14:29:32.083Z,4.70
2023-03-05T14:33:36.951Z,6.80
2023-03-05T14:37:45.215Z,6.07
2023-03-05T14:41:48.181Z,7.97
2023-03-05T14:45:51.427Z,7.43
2023-03-05T14:49:56.294Z,7.65
2023-03-05T14:54:00.567Z,7.05
2023-03-05T14:58:06.029Z,6.75
2023-03-05T15:02:16.291Z,6.75
2023-03-05T15:06:26.373Z,6.80
2023-03-05T15:10:29.679Z,5.80
2023-03-05T15:14:32.686Z,6.13
2023-03-05T15:18:38.987Z,5.65
2023-03-05T15:22:46.944Z,6.60
2023-03-05T15:26:50.273Z,5.70
2023-03-05T15:30:53.279Z,5.25
2023-03-05T15:34:56.534Z,4.57
2023-03-05T15:39:04.021Z,5.57
2023-03-05T15:43:07.068Z,4.93
2023-03-05T15:47:10.451Z,5.60
2023-03-05T15:51:13.469Z,5.88
2023-03-05T15:55:18.686Z,5.40
2023-03-05T15:59:22.442Z,5.63
2023-03-05T16:07:29.533Z,5.10
2023-03-05T16:11:37.410Z,6.68
2023-03-05T16:15:43.036Z,5.85
2023-03-05T16:19:49.507Z,5.80
2023-03-05T16:23:52.793Z,5.03
2023-03-05T16:28:03.199Z,5.88
2023-03-05T16:32:07.479Z,6.43
2023-03-05T16:36:29.127Z,5.82
2023-03-05T16:41:06.265Z,6.63
2023-03-05T16:45:03.971Z,7.60
2023-03-05T16:49:07.616Z,7.65
2023-03-05T16:53:11.247Z,8.75
2023-03-05T16:57:14.631Z,7.65
2023-03-05T17:01:21.542Z,8.15
2023-03-05T17:05:28.362Z,8.82
2023-03-05T17:09:32.239Z,8.77
2023-03-05T17:13:35.339Z,11.88
2023-03-05T17:17:40.923Z,17.85
2023-03-05T17:21:44.229Z,17.25
2023-03-05T17:25:47.535Z,14.68
2023-03-05T17:29:50.846Z,14.63
2023-03-05T17:33:55.750Z,14.45
2023-03-05T17:38:03.661Z,12.45
2023-03-05T17:42:06.743Z,14.23
2023-03-05T17:46:10.296Z,11.05
2023-03-05T17:50:15.210Z,13.52
2023-03-05T17:54:18.075Z,13.80
2023-03-05T17:58:21.258Z,16.27
2023-03-05T18:02:24.530Z,16.38
2023-03-05T18:06:29.226Z,14.68
2023-03-05T18:10:32.807Z,14.60
2023-03-05T18:14:38.644Z,13.88
2023-03-05T18:18:41.717Z,13.90
2023-03-05T18:22:48.285Z,11.80
2023-03-05T18:26:51.096Z,10.18
2023-03-05T18:30:54.288Z,9.40
2023-03-05T18:35:00.677Z,9.88
2023-03-05T18:39:05.594Z,8.30
2023-03-05T18:43:08.595Z,9.75
2023-03-05T18:47:12.454Z,10.05
2023-03-05T18:51:19.870Z,10.13
2023-03-05T18:55:26.755Z,11.48
2023-03-05T18:59:31.978Z,10.63
2023-03-05T19:03:34.662Z,10.07
2023-03-05T19:07:40.321Z,9.40
2023-03-05T19:11:44.830Z,10.88
2023-03-05T19:15:52.906Z,10.18
2023-03-05T19:19:59.972Z,10.07
2023-03-05T19:24:03.233Z,10.75
2023-03-05T19:28:21.720Z,12.02
2023-03-05T19:32:25.479Z,11.95
2023-03-05T19:36:41.642Z,11.50
2023-03-05T19:40:45.052Z,12.95
2023-03-05T19:44:58.408Z,10.27
2023-03-05T19:49:12.842Z,10.48
2023-03-05T19:53:20.046Z,12.82
2023-03-05T19:57:28.202Z,11.95
2023-03-05T20:01:33.911Z,12.45
2023-03-05T20:05:37.426Z,12.20
2023-03-05T20:09:41.909Z,11.38
2023-03-05T20:13:45.385Z,13.25
2023-03-05T20:17:49.886Z,12.10
2023-03-05T20:21:52.951Z,13.48
2023-03-05T20:25:57.211Z,11.73
2023-03-05T20:30:08.079Z,14.23
2023-03-05T20:34:15.922Z,11.82
2023-03-05T20:38:22.546Z,11.75
2023-03-05T20:42:28.771Z,11.40
2023-03-05T20:46:34.353Z,11.45
2023-03-05T20:50:41.419Z,10.98
2023-03-05T20:54:47.983Z,11.55
2023-03-05T20:58:50.953Z,11.27
2023-03-05T21:02:56.394Z,16.10
2023-03-05T21:07:01.615Z,11.27
2023-03-05T21:11:07.809Z,12.50
2023-03-05T21:15:13.321Z,14.48
2023-03-05T21:19:17.782Z,13.93
2023-03-05T21:23:22.173Z,10.00
2023-03-05T21:27:25.599Z,21.98
2023-03-05T21:31:30.115Z,12.63
2023-03-05T21:35:33.851Z,14.25
2023-03-05T21:39:41.367Z,13.02
2023-03-05T21:43:47.209Z,10.77
2023-03-05T21:47:52.144Z,10.80
2023-03-05T21:52:06.062Z,11.02
2023-03-05T21:56:22.214Z,13.00
2023-03-05T22:00:28.979Z,12.52
2023-03-05T22:04:36.586Z,10.93
2023-03-05T22:08:39.511Z,12.18
2023-03-05T22:12:53.526Z,12.77
2023-03-05T22:17:02.395Z,13.95
2023-03-05T22:21:05.950Z,12.80
2023-03-05T22:25:10.429Z,14.43
2023-03-05T22:29:17.627Z,12.57
2023-03-05T22:33:23.019Z,12.38
2023-03-05T22:37:26.169Z,11.10
2023-03-05T22:41:29.433Z,12.35
2023-03-05T22:45:36.524Z,11.98
2023-03-05T22:49:39.725Z,12.93
2023-03-05T22:53:43.293Z,13.35
2023-03-05T22:57:46.734Z,14.05
2023-03-05T23:01:51.334Z,14.00
2023-03-05T23:05:55.448Z,13.65
2023-03-05T23:10:00.873Z,12.15
2023-03-05T23:14:04.251Z,11.65
2023-03-05T23:18:12.691Z,12.20
2023-03-05T23:22:18.738Z,12.60
2023-03-05T23:26:22.008Z,12.30
2023-03-05T23:30:28.640Z,12.10
2023-03-05T23:34:37.037Z,12.65
2023-03-05T23:38:42.922Z,11.90
2023-03-05T23:42:46.678Z,14.70
2023-03-05T23:46:49.562Z,12.55
2023-03-05T23:50:54.641Z,13.10
2023-03-05T23:54:58.419Z,13.13
2023-03-05T23:59:01.792Z,11.52
